Terminal Aerodrome Forecast
Issued by NWS Austin/San Antonio, TX

Home | Current Version | Previous Version | Text Only | Print | Product List | Glossary On
Versions: 1 2 3 4 5 6 7 8 9 10 11 12 13 14 15 16
000
FTUS44 KEWX 021135
TAFAUS
TAF
KAUS 021135Z 0212/0318 21003KT P6SM FEW250
     FM021700 17008KT P6SM SCT045 SCT250
     FM030100 19005KT P6SM FEW250=

USA.gov is the U.S. government's official web portal to all federal, state and local government web resources and services.